Time;durP1;ratioP1;P1;durP2;ratioP2;P2;SDS_P1;SDS_P2;PMS_P1;PMS_P2;Temp;Humidity;BMP_temperature;BMP_pressure;BME280_temperature;BME280_humidity;BME280_pressure;Samples;Min_cycle;Max_cycle;Signal;HPM_P1;HPM_P2
2022/02/02 00:04:25;;;;;;;33.77;4.70;;;;;;;;;;5048260;28;20204;-67
2022/02/02 00:07:07;;;;;;;36.27;5.87;;;;;;;;;;5041574;28;20189;-67
2022/02/02 00:09:34;;;;;;;35.13;6.33;;;;;;;;;;5055563;28;20196;-66
2022/02/02 00:18:14;;;;;;;34.50;6.67;;;;;;;;;;5078595;28;20241;-67
2022/02/02 00:20:17;;;;;;;29.87;4.97;;;;;;;;;;5047504;28;20209;-67
2022/02/02 00:22:45;;;;;;;33.63;4.60;;;;;;;;;;5044142;28;20201;-68
2022/02/02 00:25:18;;;;;;;32.40;5.30;;;;;;;;;;5044940;28;20661;-66
2022/02/02 00:27:47;;;;;;;28.13;4.93;;;;;;;;;;5044788;28;20177;-67
2022/02/02 00:30:17;;;;;;;37.67;5.23;;;;;;;;;;5039709;28;20210;-67
2022/02/02 00:33:07;;;;;;;27.73;4.67;;;;;;;;;;5044313;28;20193;-67
2022/02/02 00:35:38;;;;;;;31.93;4.27;;;;;;;;;;5034786;28;20220;-67
2022/02/02 00:38:03;;;;;;;34.17;5.27;;;;;;;;;;5044887;28;20268;-67
2022/02/02 00:40:29;;;;;;;39.53;6.00;;;;;;;;;;5047480;28;20289;-67
2022/02/02 00:42:54;;;;;;;31.03;5.00;;;;;;;;;;5045561;28;20200;-67
2022/02/02 00:45:20;;;;;;;40.53;5.27;;;;;;;;;;5050161;28;20185;-67
2022/02/02 00:47:51;;;;;;;35.20;4.73;;;;;;;;;;5044423;28;20546;-67
2022/02/02 00:50:16;;;;;;;28.90;4.80;;;;;;;;;;5041259;28;20272;-67
2022/02/02 00:52:42;;;;;;;35.40;4.40;;;;;;;;;;5044450;28;20276;-67
2022/02/02 00:55:08;;;;;;;37.73;5.13;;;;;;;;;;5046967;28;20212;-67
2022/02/02 00:57:33;;;;;;;32.03;5.27;;;;;;;;;;5044019;28;20217;-67
2022/02/02 00:59:59;;;;;;;35.33;5.93;;;;;;;;;;5045632;28;20753;-67
2022/02/02 01:02:25;;;;;;;37.43;5.60;;;;;;;;;;5046376;28;20212;-67
2022/02/02 01:04:50;;;;;;;38.53;5.73;;;;;;;;;;5045966;28;20216;-67
2022/02/02 01:07:25;;;;;;;30.53;5.07;;;;;;;;;;5043671;28;20185;-67
2022/02/02 01:12:38;;;;;;;29.90;5.07;;;;;;;;;;5041842;28;20612;-67
2022/02/02 01:28:11;;;;;;;32.30;4.80;;;;;;;;;;5047429;28;20255;-67
2022/02/02 01:30:37;;;;;;;37.97;5.07;;;;;;;;;;5045894;28;20668;-66
2022/02/02 01:33:03;;;;;;;41.73;5.53;;;;;;;;;;5040263;28;20178;-66
2022/02/02 01:35:28;;;;;;;29.33;4.90;;;;;;;;;;5042333;28;20228;-67
2022/02/02 01:37:56;;;;;;;43.07;5.63;;;;;;;;;;5044829;28;20318;-67
2022/02/02 01:40:27;;;;;;;33.57;4.80;;;;;;;;;;5044676;28;20254;-68
2022/02/02 01:43:04;;;;;;;45.17;5.63;;;;;;;;;;5041842;28;20174;-67
2022/02/02 01:45:53;;;;;;;30.93;4.30;;;;;;;;;;5043647;28;20272;-68
2022/02/02 01:48:30;;;;;;;39.80;5.83;;;;;;;;;;5045400;28;20257;-68
2022/02/02 01:51:07;;;;;;;28.33;4.37;;;;;;;;;;5040195;28;20276;-67
2022/02/02 01:56:00;;;;;;;35.37;4.93;;;;;;;;;;5042610;28;20189;-67
2022/02/02 02:01:22;;;;;;;32.43;5.30;;;;;;;;;;5025213;28;20213;-67
2022/02/02 02:03:48;;;;;;;28.80;4.73;;;;;;;;;;5047443;28;20181;-67
2022/02/02 02:06:14;;;;;;;37.13;4.77;;;;;;;;;;5043047;28;20195;-68
2022/02/02 02:08:41;;;;;;;38.17;5.00;;;;;;;;;;5043941;28;20273;-67
2022/02/02 02:11:13;;;;;;;26.73;4.23;;;;;;;;;;5040966;28;20551;-67
2022/02/02 02:16:23;;;;;;;27.60;3.70;;;;;;;;;;5038499;28;20248;-68
2022/02/02 02:18:49;;;;;;;30.07;5.00;;;;;;;;;;5045085;28;20586;-68
2022/02/02 02:21:17;;;;;;;24.07;4.53;;;;;;;;;;5040723;28;20295;-67
2022/02/02 02:23:45;;;;;;;24.13;3.53;;;;;;;;;;5044419;28;20188;-67
2022/02/02 02:26:19;;;;;;;28.20;3.97;;;;;;;;;;5042761;28;20231;-67
2022/02/02 02:28:59;;;;;;;26.47;4.00;;;;;;;;;;5041498;28;20193;-66
2022/02/02 02:39:34;;;;;;;33.47;4.87;;;;;;;;;;5042758;28;20288;-67
2022/02/02 02:55:53;;;;;;;35.03;4.63;;;;;;;;;;5047687;28;20199;-66
2022/02/02 03:50:53;;;;;;;17.93;3.23;;;;;;;;;;5039437;28;20208;-67
2022/02/02 03:55:30;;;;;;;19.23;3.07;;;;;;;;;;5045388;28;20686;-67
2022/02/02 04:05:48;;;;;;;13.63;1.73;;;;;;;;;;5043393;28;20200;-67
2022/02/02 04:08:25;;;;;;;11.67;1.80;;;;;;;;;;5044123;28;20602;-67
2022/02/02 04:10:54;;;;;;;13.47;2.23;;;;;;;;;;5044071;28;20230;-66
2022/02/02 04:13:31;;;;;;;10.93;1.77;;;;;;;;;;5048348;28;20187;-66
2022/02/02 04:59:32;;;;;;;13.27;2.70;;;;;;;;;;5042990;28;20239;-67
2022/02/02 05:05:15;;;;;;;18.43;2.77;;;;;;;;;;5043925;28;20209;-67
2022/02/02 05:07:47;;;;;;;16.80;3.17;;;;;;;;;;5049983;28;20193;-67
2022/02/02 05:11:08;;;;;;;26.53;3.07;;;;;;;;;;5040813;28;20182;-67
2022/02/02 05:14:01;;;;;;;26.17;3.60;;;;;;;;;;5049074;28;20671;-67
2022/02/02 05:24:59;;;;;;;23.77;3.57;;;;;;;;;;5046008;28;20189;-66
2022/02/02 05:53:08;;;;;;;21.63;2.77;;;;;;;;;;5044913;28;20649;-68
2022/02/02 05:55:39;;;;;;;13.13;2.50;;;;;;;;;;5043859;28;20192;-68
2022/02/02 05:58:06;;;;;;;20.77;2.80;;;;;;;;;;5044713;28;20667;-67
2022/02/02 06:00:35;;;;;;;20.87;2.90;;;;;;;;;;5042665;28;20217;-67
2022/02/02 06:03:01;;;;;;;21.43;2.47;;;;;;;;;;5044878;28;20224;-67
2022/02/02 06:05:28;;;;;;;19.23;3.33;;;;;;;;;;5041706;28;20288;-67
2022/02/02 06:07:55;;;;;;;18.93;2.97;;;;;;;;;;5045411;28;20181;-68
2022/02/02 06:10:22;;;;;;;22.43;3.10;;;;;;;;;;5038706;28;20602;-68
2022/02/02 06:12:48;;;;;;;27.03;3.00;;;;;;;;;;5040173;28;20231;-69
2022/02/02 06:15:17;;;;;;;25.17;3.13;;;;;;;;;;5039510;28;20193;-67
2022/02/02 06:17:51;;;;;;;24.93;4.00;;;;;;;;;;5045406;28;20193;-68
2022/02/02 06:20:16;;;;;;;21.63;2.87;;;;;;;;;;5039547;28;20300;-67
2022/02/02 06:22:50;;;;;;;18.53;2.63;;;;;;;;;;5049068;28;20579;-67
2022/02/02 06:25:32;;;;;;;21.20;3.33;;;;;;;;;;5042641;28;20185;-67
2022/02/02 06:28:03;;;;;;;30.23;4.30;;;;;;;;;;5045021;28;20330;-68
2022/02/02 06:30:30;;;;;;;25.47;3.63;;;;;;;;;;5038176;28;21976;-68
2022/02/02 06:33:15;;;;;;;17.90;2.23;;;;;;;;;;5036051;28;20201;-67
2022/02/02 06:35:40;;;;;;;17.53;2.43;;;;;;;;;;5044267;28;20169;-67
2022/02/02 06:38:06;;;;;;;19.50;2.80;;;;;;;;;;5042338;28;20203;-67
2022/02/02 06:40:33;;;;;;;22.50;2.70;;;;;;;;;;5046892;28;20254;-68
2022/02/02 06:42:59;;;;;;;17.10;2.33;;;;;;;;;;5042566;28;20729;-68
2022/02/02 06:45:25;;;;;;;30.07;3.63;;;;;;;;;;5045328;28;20279;-68
2022/02/02 06:47:50;;;;;;;20.00;2.83;;;;;;;;;;5043162;28;20232;-68
2022/02/02 06:50:23;;;;;;;19.10;3.10;;;;;;;;;;5047864;28;20675;-66
2022/02/02 06:53:25;;;;;;;20.37;3.30;;;;;;;;;;5043591;28;20184;-67
2022/02/02 06:56:11;;;;;;;21.77;2.67;;;;;;;;;;5040101;28;20193;-67
2022/02/02 07:01:54;;;;;;;20.50;2.93;;;;;;;;;;5039866;28;20210;-67
2022/02/02 07:05:44;;;;;;;17.33;2.70;;;;;;;;;;5041441;28;20193;-67
2022/02/02 07:11:16;;;;;;;14.67;2.00;;;;;;;;;;5041096;28;20194;-67
2022/02/02 07:13:55;;;;;;;28.87;3.67;;;;;;;;;;5041100;28;20208;-66
2022/02/02 07:29:17;;;;;;;26.17;2.80;;;;;;;;;;5038201;28;20193;-68
2022/02/02 07:34:31;;;;;;;22.43;2.57;;;;;;;;;;5040501;28;20201;-68
2022/02/02 07:37:01;;;;;;;22.53;3.10;;;;;;;;;;5044199;28;20208;-67
2022/02/02 07:39:27;;;;;;;30.37;3.77;;;;;;;;;;5046129;28;20594;-67
2022/02/02 07:41:59;;;;;;;24.27;3.30;;;;;;;;;;5043575;28;20309;-67
2022/02/02 07:44:29;;;;;;;20.27;2.70;;;;;;;;;;5038157;28;20186;-68
2022/02/02 07:46:59;;;;;;;25.33;3.40;;;;;;;;;;5042782;28;20220;-68
2022/02/02 07:49:30;;;;;;;20.73;2.60;;;;;;;;;;5042911;28;21322;-68
2022/02/02 07:51:57;;;;;;;20.97;3.23;;;;;;;;;;5044511;28;20234;-68
2022/02/02 07:54:32;;;;;;;26.57;2.80;;;;;;;;;;5045748;28;20739;-68
2022/02/02 07:56:57;;;;;;;26.77;3.27;;;;;;;;;;5040602;28;20172;-68
2022/02/02 08:01:54;;;;;;;28.37;3.53;;;;;;;;;;5045566;28;20305;-68
2022/02/02 08:04:22;;;;;;;20.23;3.03;;;;;;;;;;5047016;28;20688;-67
2022/02/02 08:06:54;;;;;;;25.37;3.03;;;;;;;;;;5040412;28;20600;-68
2022/02/02 08:11:58;;;;;;;36.17;3.40;;;;;;;;;;5043044;28;20190;-67
2022/02/02 08:14:25;;;;;;;18.87;3.53;;;;;;;;;;5040430;28;20216;-67
2022/02/02 08:16:50;;;;;;;27.23;3.97;;;;;;;;;;5048922;28;20185;-67
2022/02/02 08:19:17;;;;;;;32.47;3.73;;;;;;;;;;5043243;28;20194;-67
2022/02/02 08:21:45;;;;;;;20.37;3.70;;;;;;;;;;5049563;28;20205;-67
2022/02/02 08:24:12;;;;;;;25.53;3.40;;;;;;;;;;5044678;28;20747;-68
2022/02/02 08:26:38;;;;;;;23.93;3.57;;;;;;;;;;5038390;28;20205;-68
2022/02/02 08:29:03;;;;;;;25.70;3.67;;;;;;;;;;5039599;28;20212;-67
2022/02/02 08:31:29;;;;;;;24.27;3.40;;;;;;;;;;5044807;28;20302;-68
2022/02/02 08:33:59;;;;;;;27.07;3.73;;;;;;;;;;5044257;28;20185;-68
2022/02/02 08:36:25;;;;;;;24.83;3.60;;;;;;;;;;5045773;28;20182;-68
2022/02/02 08:41:38;;;;;;;21.20;3.43;;;;;;;;;;5045530;28;20568;-66
2022/02/02 08:44:09;;;;;;;19.67;2.83;;;;;;;;;;5039878;28;20212;-68
2022/02/02 08:46:39;;;;;;;26.60;3.50;;;;;;;;;;5043709;28;20192;-67
2022/02/02 08:49:08;;;;;;;19.37;3.07;;;;;;;;;;5040436;28;20197;-67
2022/02/02 08:51:39;;;;;;;20.63;4.23;;;;;;;;;;5046614;28;20589;-67
2022/02/02 08:54:16;;;;;;;21.30;3.60;;;;;;;;;;5043486;28;20209;-67
2022/02/02 09:01:46;;;;;;;25.13;3.30;;;;;;;;;;5047045;28;20304;-68
2022/02/02 09:06:56;;;;;;;29.70;4.07;;;;;;;;;;5041760;28;20232;-67
2022/02/02 09:09:35;;;;;;;29.17;3.57;;;;;;;;;;5047557;28;20185;-67
2022/02/02 09:25:37;;;;;;;31.70;4.13;;;;;;;;;;5043750;28;20193;-66
2022/02/02 09:35:58;;;;;;;25.03;3.47;;;;;;;;;;5042310;28;20281;-67
2022/02/02 09:38:24;;;;;;;24.43;3.50;;;;;;;;;;5043579;28;20189;-65
2022/02/02 09:43:25;;;;;;;29.10;4.17;;;;;;;;;;5042267;28;20205;-66
2022/02/02 09:46:04;;;;;;;30.93;3.50;;;;;;;;;;5043382;28;20188;-66
2022/02/02 09:48:42;;;;;;;26.13;3.20;;;;;;;;;;5042304;28;20255;-67
2022/02/02 09:51:12;;;;;;;21.37;3.63;;;;;;;;;;5044715;28;20200;-67
2022/02/02 09:53:43;;;;;;;23.77;3.60;;;;;;;;;;5045536;28;20284;-67
2022/02/02 09:59:17;;;;;;;16.73;3.03;;;;;;;;;;5038322;28;20260;-67
2022/02/02 10:02:14;;;;;;;22.60;2.77;;;;;;;;;;5042776;28;20292;-67
2022/02/02 10:09:54;;;;;;;18.57;2.73;;;;;;;;;;5050736;28;20229;-67
2022/02/02 10:13:23;;;;;;;23.70;2.20;;;;;;;;;;5041674;28;20576;-67
2022/02/02 10:15:25;;;;;;;21.20;2.77;;;;;;;;;;5051155;28;20204;-67
2022/02/02 10:18:09;;;;;;;15.35;2.35;;;;;;;;;;5038387;28;20180;-66
2022/02/02 10:20:36;;;;;;;19.80;2.20;;;;;;;;;;5044475;28;20208;-66
2022/02/02 10:23:03;;;;;;;17.30;2.58;;;;;;;;;;5043139;28;20181;-66
2022/02/02 10:25:43;;;;;;;16.52;2.38;;;;;;;;;;5041622;28;20200;-66
2022/02/02 10:28:17;;;;;;;21.02;2.03;;;;;;;;;;5040127;28;20279;-67
2022/02/02 10:30:54;;;;;;;19.53;2.33;;;;;;;;;;5040019;28;20224;-66
2022/02/02 10:33:23;;;;;;;12.63;2.53;;;;;;;;;;5043904;28;20283;-66
2022/02/02 10:35:51;;;;;;;22.48;2.22;;;;;;;;;;5044387;28;20215;-67
2022/02/02 10:38:19;;;;;;;13.52;1.70;;;;;;;;;;5045559;28;20529;-68
2022/02/02 10:40:54;;;;;;;14.95;2.28;;;;;;;;;;5039930;28;20201;-67
2022/02/02 10:43:38;;;;;;;13.67;2.03;;;;;;;;;;5030567;28;20229;-67
2022/02/02 10:46:25;;;;;;;13.17;2.20;;;;;;;;;;5043797;28;20676;-67
2022/02/02 10:49:03;;;;;;;14.70;2.40;;;;;;;;;;5039443;28;21079;-66
2022/02/02 10:51:45;;;;;;;12.60;2.20;;;;;;;;;;5045265;28;20200;-67
2022/02/02 10:56:54;;;;;;;17.35;2.38;;;;;;;;;;5045946;28;20915;-66
2022/02/02 11:07:13;;;;;;;13.88;1.90;;;;;;;;;;5044852;28;20231;-66
2022/02/02 11:09:39;;;;;;;14.60;2.45;;;;;;;;;;5042707;28;20242;-66
2022/02/02 11:12:08;;;;;;;13.30;1.95;;;;;;;;;;5053572;28;20186;-66
2022/02/02 11:15:03;;;;;;;13.77;2.17;;;;;;;;;;5045684;28;20197;-66
2022/02/02 11:17:58;;;;;;;16.67;2.85;;;;;;;;;;5045056;28;20197;-66
2022/02/02 11:20:23;;;;;;;17.15;2.30;;;;;;;;;;5049241;28;20221;-66
2022/02/02 11:22:58;;;;;;;19.08;2.33;;;;;;;;;;5045276;28;20198;-67
2022/02/02 11:25:24;;;;;;;13.63;2.15;;;;;;;;;;5049319;28;20488;-66
2022/02/02 11:27:51;;;;;;;13.93;2.33;;;;;;;;;;5045450;28;20247;-66
2022/02/02 11:30:23;;;;;;;17.65;1.80;;;;;;;;;;5046880;28;20220;-66
2022/02/02 11:32:54;;;;;;;21.73;2.80;;;;;;;;;;5044029;28;20531;-66
2022/02/02 11:35:40;;;;;;;16.38;1.45;;;;;;;;;;5046550;28;20731;-67
2022/02/02 11:38:17;;;;;;;15.38;2.22;;;;;;;;;;5046593;28;20208;-66
2022/02/02 11:41:05;;;;;;;9.57;1.40;;;;;;;;;;5047447;28;20250;-66
2022/02/02 11:44:09;;;;;;;16.45;2.95;;;;;;;;;;5048523;28;20182;-66
2022/02/02 11:46:40;;;;;;;20.17;2.28;;;;;;;;;;5048535;28;20188;-67
2022/02/02 11:49:13;;;;;;;17.10;2.70;;;;;;;;;;5049544;28;20608;-67
2022/02/02 11:51:44;;;;;;;10.07;1.60;;;;;;;;;;5046553;28;20174;-67
2022/02/02 11:54:15;;;;;;;10.80;1.65;;;;;;;;;;5040959;28;20300;-66
2022/02/02 11:57:11;;;;;;;13.73;2.00;;;;;;;;;;5046252;28;20181;-66
2022/02/02 11:59:44;;;;;;;11.55;1.42;;;;;;;;;;5041307;28;20237;-67
2022/02/02 12:02:33;;;;;;;15.70;1.70;;;;;;;;;;5043917;28;20534;-66
2022/02/02 12:05:54;;;;;;;10.55;1.58;;;;;;;;;;5043475;28;20181;-66
2022/02/02 12:08:49;;;;;;;12.13;1.50;;;;;;;;;;5043307;28;20193;-67
2022/02/02 12:56:57;;;;;;;13.85;1.75;;;;;;;;;;5043175;28;20200;-67
2022/02/02 12:59:41;;;;;;;14.52;1.73;;;;;;;;;;5044717;28;20247;-66
2022/02/02 13:02:09;;;;;;;13.80;1.60;;;;;;;;;;5043550;28;20197;-66
2022/02/02 13:04:36;;;;;;;12.93;1.77;;;;;;;;;;5044614;28;20185;-66
2022/02/02 13:07:15;;;;;;;9.73;2.40;;;;;;;;;;5042492;28;20188;-66
2022/02/02 13:09:43;;;;;;;15.47;1.63;;;;;;;;;;5047987;28;20192;-67
2022/02/02 13:12:45;;;;;;;12.98;1.70;;;;;;;;;;5045662;28;20223;-66
2022/02/02 13:15:47;;;;;;;14.57;1.85;;;;;;;;;;5041368;28;20178;-66
2022/02/02 13:18:28;;;;;;;12.43;2.03;;;;;;;;;;5039469;28;20189;-66
2022/02/02 13:24:01;;;;;;;11.93;1.75;;;;;;;;;;5045680;28;20193;-66
2022/02/02 13:29:15;;;;;;;12.43;1.88;;;;;;;;;;5041082;28;20656;-67
2022/02/02 13:37:24;;;;;;;10.65;1.50;;;;;;;;;;5054096;28;20514;-66
2022/02/02 13:42:38;;;;;;;14.35;1.90;;;;;;;;;;5048654;28;20243;-66
2022/02/02 13:48:47;;;;;;;12.63;1.92;;;;;;;;;;5043493;28;20189;-67
2022/02/02 13:53:56;;;;;;;14.02;2.08;;;;;;;;;;5041567;28;20680;-66
2022/02/02 14:01:51;;;;;;;17.05;2.90;;;;;;;;;;5044296;28;20225;-67
2022/02/02 14:04:36;;;;;;;17.30;2.22;;;;;;;;;;5044222;28;20235;-67
2022/02/02 14:07:26;;;;;;;11.50;2.28;;;;;;;;;;5043487;28;20768;-66
2022/02/02 14:10:07;;;;;;;17.10;2.33;;;;;;;;;;5035502;28;20228;-67
2022/02/02 14:31:36;;;;;;;16.75;2.60;;;;;;;;;;5043442;28;20216;-67
2022/02/02 14:34:03;;;;;;;17.73;3.38;;;;;;;;;;5044239;28;20238;-67
2022/02/02 14:36:33;;;;;;;19.73;2.95;;;;;;;;;;5042054;28;20204;-67
2022/02/02 14:39:20;;;;;;;16.90;2.38;;;;;;;;;;5037439;28;20177;-67
2022/02/02 14:42:05;;;;;;;17.90;2.33;;;;;;;;;;5040644;28;20197;-67
2022/02/02 14:44:36;;;;;;;12.70;2.50;;;;;;;;;;5037426;28;20189;-67
2022/02/02 14:47:09;;;;;;;19.80;2.40;;;;;;;;;;5048109;28;20192;-67
2022/02/02 14:49:46;;;;;;;20.55;2.80;;;;;;;;;;5047636;28;20247;-67
2022/02/02 14:55:37;;;;;;;13.43;2.33;;;;;;;;;;5046694;28;20652;-67
2022/02/02 15:23:43;;;;;;;19.92;2.30;;;;;;;;;;5052510;28;20223;-66
2022/02/02 15:25:38;;;;;;;9.57;1.90;;;;;;;;;;5047995;28;20187;-67
2022/02/02 15:30:27;;;;;;;16.88;2.72;;;;;;;;;;5040603;28;20213;-67
2022/02/02 15:32:55;;;;;;;17.23;2.67;;;;;;;;;;5043545;28;20189;-67
2022/02/02 15:35:22;;;;;;;13.93;2.15;;;;;;;;;;5044881;28;20181;-67
2022/02/02 15:38:14;;;;;;;14.73;2.35;;;;;;;;;;5045147;28;20212;-67
2022/02/02 15:40:47;;;;;;;21.48;2.55;;;;;;;;;;5046244;28;20214;-67
2022/02/02 16:04:36;;;;;;;17.65;3.45;;;;;;;;;;5045162;28;20198;-67
2022/02/02 16:07:05;;;;;;;21.60;2.47;;;;;;;;;;5044487;28;20497;-66
2022/02/02 16:09:42;;;;;;;22.88;3.22;;;;;;;;;;5044529;28;20197;-66
2022/02/02 16:12:15;;;;;;;17.98;4.18;;;;;;;;;;5046177;28;20173;-66
2022/02/02 16:15:00;;;;;;;13.75;2.78;;;;;;;;;;5039724;28;20190;-67
2022/02/02 16:31:32;;;;;;;20.23;4.15;;;;;;;;;;5045478;28;20204;-66
2022/02/02 16:36:48;;;;;;;14.87;3.90;;;;;;;;;;5048379;28;20187;-67
2022/02/02 16:39:24;;;;;;;15.80;3.10;;;;;;;;;;5039608;28;20224;-66
2022/02/02 16:44:35;;;;;;;18.83;3.83;;;;;;;;;;5042128;28;20258;-66
2022/02/02 16:47:00;;;;;;;16.70;3.50;;;;;;;;;;5046996;28;20192;-66
2022/02/02 16:49:25;;;;;;;23.30;4.28;;;;;;;;;;5042228;28;20268;-67
2022/02/02 16:51:51;;;;;;;21.40;3.27;;;;;;;;;;5045969;28;20193;-67
2022/02/02 16:54:42;;;;;;;13.87;3.87;;;;;;;;;;5041633;28;20640;-67
2022/02/02 17:32:04;;;;;;;15.80;4.07;;;;;;;;;;5038825;28;20210;-67
2022/02/02 17:34:43;;;;;;;15.80;3.80;;;;;;;;;;5039388;28;20197;-67
2022/02/02 17:37:38;;;;;;;21.93;3.50;;;;;;;;;;5035321;28;20196;-68
2022/02/02 17:40:14;;;;;;;21.00;3.70;;;;;;;;;;5038149;28;20247;-66
2022/02/02 17:45:37;;;;;;;18.50;4.00;;;;;;;;;;5038257;28;20197;-67
2022/02/02 18:16:01;;;;;;;14.20;3.13;;;;;;;;;;5045380;28;20185;-67
2022/02/02 18:20:49;;;;;;;18.07;3.23;;;;;;;;;;5052742;28;20188;-67
2022/02/02 18:23:24;;;;;;;12.27;2.80;;;;;;;;;;5042448;28;20195;-67
2022/02/02 18:26:08;;;;;;;13.07;2.70;;;;;;;;;;5045979;28;20702;-66
2022/02/02 18:28:45;;;;;;;14.20;2.57;;;;;;;;;;5042029;28;20192;-67
2022/02/02 18:31:28;;;;;;;18.43;3.10;;;;;;;;;;5042110;28;20201;-67
2022/02/02 18:49:27;;;;;;;15.23;3.00;;;;;;;;;;5044090;28;20659;-67
2022/02/02 18:54:55;;;;;;;10.50;2.27;;;;;;;;;;5039076;28;20465;-68
2022/02/02 19:05:52;;;;;;;14.63;3.23;;;;;;;;;;5039798;28;20201;-67
2022/02/02 19:52:59;;;;;;;16.60;3.60;;;;;;;;;;5042361;28;20564;-67
2022/02/02 19:55:33;;;;;;;11.63;3.00;;;;;;;;;;5041613;28;20197;-67
2022/02/02 20:11:07;;;;;;;21.80;4.10;;;;;;;;;;5040698;28;20185;-67
2022/02/02 20:13:38;;;;;;;19.47;4.30;;;;;;;;;;5040713;28;20193;-67
2022/02/02 20:16:04;;;;;;;22.73;5.10;;;;;;;;;;5038071;28;20170;-67
2022/02/02 20:18:35;;;;;;;22.43;4.23;;;;;;;;;;5041373;28;20198;-67
2022/02/02 20:21:05;;;;;;;17.93;3.83;;;;;;;;;;5040811;28;20193;-68
2022/02/02 20:23:30;;;;;;;19.83;4.37;;;;;;;;;;5037935;28;20197;-67
2022/02/02 20:25:56;;;;;;;18.53;4.50;;;;;;;;;;5045526;28;20182;-67
2022/02/02 20:28:21;;;;;;;21.93;4.57;;;;;;;;;;5042811;28;20280;-68
2022/02/02 20:30:47;;;;;;;19.07;4.07;;;;;;;;;;5045394;28;20761;-67
2022/02/02 20:33:13;;;;;;;27.07;4.87;;;;;;;;;;5036020;28;20689;-66
2022/02/02 20:35:38;;;;;;;19.33;4.47;;;;;;;;;;5041823;28;20189;-66
2022/02/02 20:38:04;;;;;;;20.47;4.47;;;;;;;;;;5038997;28;20620;-66
2022/02/02 20:40:30;;;;;;;23.57;4.77;;;;;;;;;;5049178;28;21024;-67
2022/02/02 20:43:07;;;;;;;27.60;4.77;;;;;;;;;;5036562;28;20598;-67
2022/02/02 21:03:12;;;;;;;22.40;5.00;;;;;;;;;;5045072;28;20216;-68
2022/02/02 21:08:19;;;;;;;17.63;4.73;;;;;;;;;;5052212;28;20700;-67
2022/02/02 21:10:40;;;;;;;22.87;5.17;;;;;;;;;;5039704;28;20313;-67
2022/02/02 21:15:50;;;;;;;17.07;4.83;;;;;;;;;;5045886;28;20187;-67
2022/02/02 21:18:19;;;;;;;30.90;5.13;;;;;;;;;;5039857;28;20193;-67
2022/02/02 21:21:02;;;;;;;23.10;6.23;;;;;;;;;;5045662;28;20593;-67
2022/02/02 21:23:38;;;;;;;23.20;5.03;;;;;;;;;;5040791;28;20211;-67
2022/02/02 21:28:32;;;;;;;27.40;5.30;;;;;;;;;;5040762;28;20654;-66
2022/02/02 21:30:58;;;;;;;21.53;5.03;;;;;;;;;;5048380;28;20247;-66
2022/02/02 21:33:23;;;;;;;27.65;6.43;;;;;;;;;;5042762;28;20194;-67
2022/02/02 21:35:50;;;;;;;28.95;6.78;;;;;;;;;;5045483;28;20196;-67
2022/02/02 21:40:56;;;;;;;27.60;6.55;;;;;;;;;;5044124;28;20213;-68
2022/02/02 21:43:23;;;;;;;29.20;8.20;;;;;;;;;;5043527;28;20204;-66
2022/02/02 21:45:49;;;;;;;25.20;7.78;;;;;;;;;;5046739;28;20189;-68
2022/02/02 21:48:15;;;;;;;33.83;8.38;;;;;;;;;;5044800;28;20208;-66
2022/02/02 21:50:46;;;;;;;32.15;9.45;;;;;;;;;;5050785;28;20189;-66
2022/02/02 21:53:14;;;;;;;31.77;9.18;;;;;;;;;;5044292;28;20409;-67
2022/02/02 21:55:40;;;;;;;31.03;10.27;;;;;;;;;;5045298;28;20188;-66
2022/02/02 21:58:06;;;;;;;33.33;9.57;;;;;;;;;;5044774;28;20470;-68
2022/02/02 22:00:31;;;;;;;34.27;9.80;;;;;;;;;;5043472;28;20745;-67
2022/02/02 22:02:57;;;;;;;34.67;11.00;;;;;;;;;;5043410;28;20216;-67
2022/02/02 22:05:22;;;;;;;29.45;8.48;;;;;;;;;;5043156;28;20256;-67
2022/02/02 22:07:47;;;;;;;29.08;9.95;;;;;;;;;;5050388;28;20189;-67
2022/02/02 22:10:16;;;;;;;30.27;10.82;;;;;;;;;;5040770;28;20236;-66
2022/02/02 22:12:41;;;;;;;33.53;11.57;;;;;;;;;;5044822;28;20180;-67
2022/02/02 22:15:11;;;;;;;35.83;10.97;;;;;;;;;;5043439;28;20212;-66
2022/02/02 22:17:36;;;;;;;38.67;12.65;;;;;;;;;;5055972;28;20185;-67
2022/02/02 22:20:06;;;;;;;39.20;11.70;;;;;;;;;;5050939;28;20181;-66
2022/02/02 22:22:33;;;;;;;32.07;11.00;;;;;;;;;;5043776;28;20212;-67
2022/02/02 22:24:58;;;;;;;32.73;13.17;;;;;;;;;;5048468;28;20632;-67
2022/02/02 22:27:24;;;;;;;41.33;14.80;;;;;;;;;;5056157;28;20251;-67
2022/02/02 22:29:49;;;;;;;44.73;14.77;;;;;;;;;;5056063;28;20226;-67
2022/02/02 22:32:14;;;;;;;38.97;15.13;;;;;;;;;;5046491;28;20185;-66
2022/02/02 22:34:39;;;;;;;38.07;16.23;;;;;;;;;;5053910;28;20185;-67
2022/02/02 22:37:05;;;;;;;42.73;15.57;;;;;;;;;;5046851;28;20652;-67
2022/02/02 22:39:30;;;;;;;43.50;15.10;;;;;;;;;;5055605;28;20188;-68
2022/02/02 22:41:58;;;;;;;45.03;15.60;;;;;;;;;;5043404;28;20657;-67
2022/02/02 22:44:28;;;;;;;43.50;16.20;;;;;;;;;;5054897;28;20196;-66
2022/02/02 22:46:54;;;;;;;45.80;16.17;;;;;;;;;;5044019;28;20276;-68
2022/02/02 22:49:19;;;;;;;42.37;17.97;;;;;;;;;;5050332;28;20260;-67
2022/02/02 22:51:45;;;;;;;39.03;17.50;;;;;;;;;;5043362;28;20621;-67
2022/02/02 22:54:10;;;;;;;44.13;17.33;;;;;;;;;;5044097;28;20185;-67
2022/02/02 22:56:36;;;;;;;43.33;17.87;;;;;;;;;;5044708;28;20192;-67
2022/02/02 22:59:01;;;;;;;42.87;17.67;;;;;;;;;;5044413;28;20225;-67
2022/02/02 23:01:28;;;;;;;47.43;19.60;;;;;;;;;;5035792;28;20291;-68
2022/02/02 23:03:54;;;;;;;49.20;19.17;;;;;;;;;;5034814;28;20190;-68
2022/02/02 23:06:20;;;;;;;50.00;19.40;;;;;;;;;;5044113;28;20186;-68
2022/02/02 23:08:45;;;;;;;46.80;20.13;;;;;;;;;;5038258;28;20177;-67
2022/02/02 23:11:11;;;;;;;46.67;20.27;;;;;;;;;;5045539;28;20686;-68
2022/02/02 23:13:36;;;;;;;48.37;20.47;;;;;;;;;;5048270;28;20761;-67
2022/02/02 23:16:07;;;;;;;46.00;18.93;;;;;;;;;;5042798;28;20201;-68
2022/02/02 23:18:36;;;;;;;45.00;20.73;;;;;;;;;;5048495;28;20207;-67
2022/02/02 23:21:06;;;;;;;48.80;20.97;;;;;;;;;;5046895;28;20336;-67
2022/02/02 23:23:37;;;;;;;49.50;21.50;;;;;;;;;;5045309;28;20185;-67
2022/02/02 23:26:03;;;;;;;43.07;19.87;;;;;;;;;;5051608;28;20191;-67
2022/02/02 23:28:34;;;;;;;47.30;20.67;;;;;;;;;;5052060;28;20193;-67
2022/02/02 23:31:03;;;;;;;46.77;20.63;;;;;;;;;;5045764;28;20205;-67
2022/02/02 23:33:30;;;;;;;48.90;21.13;;;;;;;;;;5042933;28;20290;-67
2022/02/02 23:35:57;;;;;;;40.33;19.83;;;;;;;;;;5047845;28;20174;-67
2022/02/02 23:38:23;;;;;;;52.03;22.03;;;;;;;;;;5050542;28;20189;-68
2022/02/02 23:43:23;;;;;;;46.27;21.10;;;;;;;;;;5049027;28;20190;-67
2022/02/02 23:45:58;;;;;;;46.83;22.37;;;;;;;;;;5046034;28;20192;-67
2022/02/02 23:48:27;;;;;;;48.33;22.17;;;;;;;;;;5042996;28;20276;-67
2022/02/02 23:50:58;;;;;;;49.77;21.70;;;;;;;;;;5040422;28;20182;-67
2022/02/02 23:53:26;;;;;;;56.23;23.70;;;;;;;;;;5042792;28;20288;-67
2022/02/02 23:56:01;;;;;;;54.35;22.33;;;;;;;;;;5047372;28;20213;-68
2022/02/02 23:58:39;;;;;;;55.27;22.70;;;;;;;;;;5044272;28;20189;-68
